Time;durP1;ratioP1;P1;durP2;ratioP2;P2;SDS_P1;SDS_P2;PMS_P1;PMS_P2;Temp;Humidity;BMP_temperature;BMP_pressure;BME280_temperature;BME280_humidity;BME280_pressure;Samples;Min_cycle;Max_cycle;Signal;HPM_P1;HPM_P2
2021/10/13 00:01:36;;;;;;;2.72;0.50;;;9.00;99.90;;;;;;5122112;27;20508;-74
2021/10/13 00:04:03;;;;;;;1.77;0.50;;;9.10;99.90;;;;;;5077163;27;20044;-74
2021/10/13 00:06:29;;;;;;;4.00;0.60;;;9.10;99.90;;;;;;5098992;27;20456;-74
2021/10/13 00:08:55;;;;;;;5.35;0.50;;;9.10;99.90;;;;;;5089324;27;20050;-74
2021/10/13 00:11:22;;;;;;;1.92;0.50;;;9.00;99.90;;;;;;5107639;27;20036;-74
2021/10/13 00:13:48;;;;;;;5.05;0.63;;;8.90;99.90;;;;;;5102960;27;20039;-74
2021/10/13 00:16:15;;;;;;;2.70;0.40;;;8.80;99.90;;;;;;5106325;27;20355;-74
2021/10/13 00:18:41;;;;;;;3.38;0.50;;;8.80;99.90;;;;;;5112684;27;20035;-74
2021/10/13 00:21:08;;;;;;;1.02;0.30;;;8.70;99.90;;;;;;5120092;27;20035;-74
2021/10/13 00:23:34;;;;;;;2.30;0.30;;;8.60;99.90;;;;;;5071948;27;20043;-74
2021/10/13 00:26:01;;;;;;;4.28;0.50;;;8.60;99.90;;;;;;5108042;27;20038;-74
2021/10/13 00:28:27;;;;;;;2.80;0.65;;;8.50;99.90;;;;;;5103382;27;20503;-74
2021/10/13 00:30:54;;;;;;;5.35;0.40;;;8.50;99.90;;;;;;5076362;27;20043;-74
2021/10/13 00:33:20;;;;;;;4.85;0.50;;;8.40;99.90;;;;;;5090386;27;20062;-74
2021/10/13 00:35:47;;;;;;;4.53;0.40;;;8.40;99.90;;;;;;5117199;27;20039;-74
2021/10/13 00:38:13;;;;;;;2.83;0.55;;;8.40;99.90;;;;;;5094289;27;20149;-74
2021/10/13 00:40:39;;;;;;;4.50;0.60;;;8.40;99.90;;;;;;5122741;27;20034;-74
2021/10/13 00:43:06;;;;;;;4.45;0.50;;;8.40;99.90;;;;;;5117479;27;20047;-74
2021/10/13 00:45:32;;;;;;;3.75;0.47;;;8.40;99.90;;;;;;5107045;27;20467;-74
2021/10/13 00:47:59;;;;;;;3.65;0.80;;;8.40;99.90;;;;;;5117849;27;20040;-74
2021/10/13 00:50:26;;;;;;;7.78;0.70;;;8.40;99.90;;;;;;5123045;27;20039;-74
2021/10/13 00:52:53;;;;;;;3.33;0.45;;;8.30;99.90;;;;;;5119332;27;20038;-74
2021/10/13 00:55:20;;;;;;;3.28;0.43;;;8.30;99.90;;;;;;5074220;27;20038;-74
2021/10/13 00:57:51;;;;;;;5.82;0.68;;;8.30;99.90;;;;;;5106998;27;20035;-74
2021/10/13 01:00:19;;;;;;;2.65;0.50;;;8.30;99.90;;;;;;5120203;27;20054;-74
2021/10/13 01:02:55;;;;;;;7.05;0.40;;;8.20;99.90;;;;;;5087166;27;20039;-74
2021/10/13 01:05:46;;;;;;;5.15;0.50;;;8.20;99.90;;;;;;5118436;27;20425;-74
2021/10/13 01:08:32;;;;;;;2.38;0.43;;;8.20;99.90;;;;;;5109374;27;20035;-74
2021/10/13 01:11:21;;;;;;;3.40;0.70;;;8.20;99.90;;;;;;5118982;27;20030;-74
2021/10/13 01:14:02;;;;;;;4.25;0.45;;;8.20;99.90;;;;;;5104006;27;20498;-74
2021/10/13 01:16:35;;;;;;;3.22;0.50;;;8.20;99.90;;;;;;5104503;28;20030;-74
2021/10/13 01:19:20;;;;;;;4.43;0.60;;;8.20;99.90;;;;;;5108976;27;20043;-74
2021/10/13 01:22:05;;;;;;;3.28;0.50;;;8.20;99.90;;;;;;5120483;27;20482;-74
2021/10/13 01:24:43;;;;;;;1.77;0.50;;;8.20;99.90;;;;;;5102376;27;20046;-74
2021/10/13 01:27:32;;;;;;;3.42;0.90;;;8.20;99.90;;;;;;5105123;27;20028;-74
2021/10/13 01:30:01;;;;;;;3.40;0.50;;;8.20;99.90;;;;;;5105928;27;20487;-74
2021/10/13 01:32:30;;;;;;;2.83;0.50;;;8.20;99.90;;;;;;5116720;27;20042;-74
2021/10/13 01:35:00;;;;;;;3.20;0.63;;;8.20;99.90;;;;;;5104669;28;21342;-74
2021/10/13 01:37:31;;;;;;;7.88;0.85;;;8.20;99.90;;;;;;5122814;27;20768;-74
2021/10/13 01:40:00;;;;;;;3.33;0.52;;;8.10;99.90;;;;;;5084024;27;20034;-74
2021/10/13 01:42:32;;;;;;;4.65;0.88;;;8.10;99.90;;;;;;5128664;27;20504;-74
2021/10/13 01:44:59;;;;;;;4.35;0.57;;;8.10;99.90;;;;;;5123920;27;20042;-74
2021/10/13 01:47:27;;;;;;;3.13;0.43;;;8.00;99.90;;;;;;5122367;27;20073;-74
2021/10/13 01:49:57;;;;;;;4.60;0.45;;;8.00;99.90;;;;;;5091172;27;20038;-74
2021/10/13 01:52:25;;;;;;;2.80;0.60;;;8.00;99.90;;;;;;5096295;27;20042;-74
2021/10/13 01:54:57;;;;;;;4.30;0.50;;;7.90;99.90;;;;;;5108427;27;20032;-74
2021/10/13 01:57:25;;;;;;;3.60;0.50;;;7.90;99.90;;;;;;5112352;27;20511;-74
2021/10/13 01:59:56;;;;;;;2.80;0.45;;;7.90;99.90;;;;;;5120189;27;20040;-74
2021/10/13 02:02:30;;;;;;;2.50;0.40;;;7.90;99.90;;;;;;5111937;27;20411;-74
2021/10/13 02:04:58;;;;;;;4.22;0.50;;;7.80;99.90;;;;;;5107613;27;20035;-74
2021/10/13 02:07:28;;;;;;;1.85;0.40;;;7.80;99.90;;;;;;5111666;27;20039;-74
2021/10/13 02:10:01;;;;;;;3.65;0.40;;;7.80;99.90;;;;;;5090853;27;20032;-74
2021/10/13 02:12:31;;;;;;;2.45;0.50;;;7.70;99.90;;;;;;5095508;27;20035;-74
2021/10/13 02:15:01;;;;;;;2.85;0.70;;;7.60;99.90;;;;;;5119257;27;20035;-74
2021/10/13 02:17:27;;;;;;;3.38;0.50;;;7.60;99.90;;;;;;5112370;27;20042;-74
2021/10/13 02:19:56;;;;;;;2.53;0.45;;;7.60;99.90;;;;;;5077739;27;20430;-74
2021/10/13 02:22:31;;;;;;;1.65;0.40;;;7.60;99.90;;;;;;5124512;27;20034;-74
2021/10/13 02:24:58;;;;;;;4.68;0.65;;;7.50;99.90;;;;;;5104393;27;20035;-74
2021/10/13 02:27:31;;;;;;;1.55;0.40;;;7.50;99.90;;;;;;5110349;27;20058;-74
2021/10/13 02:29:57;;;;;;;4.00;0.50;;;7.50;99.90;;;;;;5108283;27;20027;-74
2021/10/13 02:32:24;;;;;;;1.33;0.40;;;7.50;99.90;;;;;;5095852;27;20047;-74
2021/10/13 02:34:52;;;;;;;2.28;0.50;;;7.60;99.90;;;;;;5118330;27;20046;-74
2021/10/13 02:37:18;;;;;;;3.28;0.60;;;7.70;99.90;;;;;;5076649;27;20468;-74
2021/10/13 02:39:45;;;;;;;2.22;0.40;;;7.80;99.90;;;;;;5120842;27;20035;-74
2021/10/13 02:42:11;;;;;;;4.38;0.40;;;7.90;99.90;;;;;;5120341;27;20046;-74
2021/10/13 02:44:38;;;;;;;2.97;0.50;;;8.00;99.90;;;;;;5116982;27;20494;-74
2021/10/13 02:47:17;;;;;;;2.30;0.40;;;8.10;99.90;;;;;;5115139;27;20035;-74
2021/10/13 02:50:07;;;;;;;3.30;0.55;;;8.10;99.90;;;;;;5105861;27;20026;-74
2021/10/13 02:53:03;;;;;;;1.58;0.50;;;8.20;99.90;;;;;;5115013;27;20037;-74
2021/10/13 02:55:34;;;;;;;2.40;0.43;;;8.30;99.90;;;;;;5109894;27;20027;-74
2021/10/13 02:58:21;;;;;;;1.58;0.43;;;8.40;99.90;;;;;;5123088;27;20471;-74
2021/10/13 03:00:50;;;;;;;2.80;0.60;;;8.50;99.90;;;;;;5109775;27;20055;-74
2021/10/13 03:03:49;;;;;;;2.67;0.50;;;8.60;99.90;;;;;;5117782;27;20046;-74
2021/10/13 03:06:17;;;;;;;2.47;0.40;;;8.60;99.90;;;;;;5125784;27;20048;-74
2021/10/13 03:08:48;;;;;;;4.35;0.50;;;8.70;99.90;;;;;;5110417;27;20794;-74
2021/10/13 03:11:17;;;;;;;1.83;0.40;;;8.80;99.90;;;;;;5090222;27;20474;-74
2021/10/13 03:13:48;;;;;;;4.50;0.60;;;8.80;99.90;;;;;;5107306;27;20516;-74
2021/10/13 03:16:17;;;;;;;3.20;0.50;;;8.80;99.90;;;;;;5110765;27;20034;-74
2021/10/13 03:18:45;;;;;;;4.30;0.50;;;8.90;99.90;;;;;;5108839;27;20054;-73
2021/10/13 03:21:12;;;;;;;3.17;0.40;;;8.90;99.90;;;;;;5115698;27;20052;-73
2021/10/13 03:23:38;;;;;;;7.10;2.15;;;8.90;99.90;;;;;;5102519;27;20047;-73
2021/10/13 03:26:12;;;;;;;3.63;0.80;;;9.00;99.90;;;;;;5090024;27;20038;-74
2021/10/13 03:28:40;;;;;;;8.68;1.98;;;9.10;99.90;;;;;;5104627;27;20039;-74
2021/10/13 03:31:07;;;;;;;6.95;0.70;;;9.10;99.90;;;;;;5119131;27;20035;-74
2021/10/13 03:33:52;;;;;;;6.18;0.70;;;9.20;99.90;;;;;;5115960;27;20039;-74
2021/10/13 03:36:19;;;;;;;4.68;0.68;;;9.20;99.90;;;;;;5106568;27;20037;-74
2021/10/13 03:38:46;;;;;;;4.78;0.88;;;9.30;99.90;;;;;;5090119;27;20031;-74
2021/10/13 03:41:12;;;;;;;3.85;0.77;;;9.30;99.90;;;;;;5089469;27;20030;-74
2021/10/13 03:43:51;;;;;;;5.22;0.50;;;9.40;99.90;;;;;;5070986;27;20041;-74
2021/10/13 03:46:19;;;;;;;7.88;1.27;;;9.40;99.90;;;;;;5092453;27;20066;-74
2021/10/13 03:48:49;;;;;;;3.00;0.80;;;9.40;99.90;;;;;;5120578;27;20039;-74
2021/10/13 03:51:16;;;;;;;4.60;0.50;;;9.40;99.90;;;;;;5116061;27;20715;-74
2021/10/13 03:53:43;;;;;;;3.53;0.50;;;9.40;99.90;;;;;;5081324;27;20039;-74
2021/10/13 03:56:11;;;;;;;4.28;0.60;;;9.40;99.90;;;;;;5095226;27;20038;-74
2021/10/13 03:58:40;;;;;;;2.85;0.68;;;9.40;99.90;;;;;;5092401;27;20046;-74
2021/10/13 04:01:07;;;;;;;5.53;0.90;;;9.40;99.90;;;;;;5099999;27;20126;-74
2021/10/13 04:03:34;;;;;;;2.72;0.50;;;9.40;99.90;;;;;;5105657;27;20042;-74
2021/10/13 04:06:01;;;;;;;3.95;0.55;;;9.40;99.90;;;;;;5116570;27;20043;-74
2021/10/13 04:08:27;;;;;;;2.42;0.50;;;9.40;99.90;;;;;;5121346;27;20047;-74
2021/10/13 04:10:53;;;;;;;4.68;0.47;;;9.40;99.90;;;;;;5070161;27;20047;-74
2021/10/13 04:13:20;;;;;;;3.17;0.50;;;9.40;99.90;;;;;;5087102;27;20376;-74
2021/10/13 04:15:47;;;;;;;3.00;0.45;;;9.40;99.90;;;;;;5121382;27;20034;-74
2021/10/13 04:18:13;;;;;;;3.10;0.50;;;9.40;99.90;;;;;;5091317;27;20703;-74
2021/10/13 04:20:39;;;;;;;2.67;0.70;;;9.50;99.90;;;;;;5105682;27;20365;-74
2021/10/13 04:23:06;;;;;;;3.53;0.40;;;9.50;99.90;;;;;;5094970;27;20035;-74
2021/10/13 04:25:32;;;;;;;4.97;0.32;;;9.50;99.90;;;;;;5086530;27;20040;-74
2021/10/13 04:27:58;;;;;;;2.30;0.30;;;9.50;99.90;;;;;;5124474;27;20494;-74
2021/10/13 04:30:25;;;;;;;1.92;0.20;;;9.50;99.90;;;;;;5108898;27;20047;-74
2021/10/13 04:32:51;;;;;;;6.53;0.40;;;9.50;99.90;;;;;;5121138;27;20050;-74
2021/10/13 04:35:17;;;;;;;3.92;0.30;;;9.50;99.90;;;;;;5120107;27;20043;-74
2021/10/13 04:37:44;;;;;;;5.30;0.30;;;9.50;99.90;;;;;;5091698;27;20039;-74
2021/10/13 04:40:11;;;;;;;3.00;0.80;;;9.50;99.90;;;;;;5093846;27;20917;-74
2021/10/13 04:42:37;;;;;;;3.65;0.30;;;9.50;99.90;;;;;;5087195;27;20066;-74
2021/10/13 04:45:05;;;;;;;3.55;0.38;;;9.40;99.90;;;;;;5089497;27;20082;-74
2021/10/13 04:47:31;;;;;;;2.75;0.40;;;9.40;99.90;;;;;;5115760;27;20395;-74
2021/10/13 04:49:57;;;;;;;3.10;0.55;;;9.40;99.90;;;;;;5104969;27;20905;-74
2021/10/13 04:52:24;;;;;;;4.18;0.40;;;9.40;99.90;;;;;;5097040;27;20043;-74
2021/10/13 04:54:50;;;;;;;3.35;0.50;;;9.40;99.90;;;;;;5088672;27;20043;-74
2021/10/13 04:57:17;;;;;;;4.78;0.30;;;9.40;99.90;;;;;;5129750;27;20027;-74
2021/10/13 04:59:43;;;;;;;2.17;0.30;;;9.40;99.90;;;;;;5126767;27;20039;-74
2021/10/13 05:02:10;;;;;;;3.38;0.30;;;9.30;99.90;;;;;;5074208;27;20074;-74
2021/10/13 05:04:37;;;;;;;2.67;0.40;;;9.30;99.90;;;;;;5111569;27;20035;-74
2021/10/13 05:07:03;;;;;;;4.93;0.50;;;9.30;99.90;;;;;;5109861;27;20035;-75
2021/10/13 05:09:30;;;;;;;1.15;0.43;;;9.30;99.90;;;;;;5119390;27;20032;-74
2021/10/13 05:11:56;;;;;;;3.42;0.50;;;9.30;99.90;;;;;;5109315;27;20040;-74
2021/10/13 05:14:22;;;;;;;3.55;0.38;;;9.30;99.90;;;;;;5120569;27;20030;-75
2021/10/13 05:16:49;;;;;;;3.00;0.50;;;9.30;99.90;;;;;;5082953;27;20046;-74
2021/10/13 05:19:15;;;;;;;3.03;0.68;;;9.30;99.90;;;;;;5121620;27;20035;-74
2021/10/13 05:21:42;;;;;;;3.13;0.60;;;9.30;99.90;;;;;;5122063;27;20039;-74
2021/10/13 05:24:09;;;;;;;1.95;0.60;;;9.30;99.90;;;;;;5074274;27;20408;-74
2021/10/13 05:26:36;;;;;;;2.55;0.50;;;9.30;99.90;;;;;;5126256;27;20046;-73
2021/10/13 05:29:02;;;;;;;3.70;0.95;;;9.30;99.90;;;;;;5090023;27;20039;-74
2021/10/13 05:31:29;;;;;;;6.32;0.88;;;9.30;99.90;;;;;;5110004;27;20042;-74
2021/10/13 05:33:55;;;;;;;3.25;0.75;;;9.30;99.90;;;;;;5121069;27;20042;-74
2021/10/13 05:36:22;;;;;;;4.13;0.80;;;9.20;99.90;;;;;;5094637;27;20043;-74
2021/10/13 05:38:48;;;;;;;4.93;0.68;;;9.20;99.90;;;;;;5089622;27;20050;-74
2021/10/13 05:41:15;;;;;;;3.20;0.50;;;9.10;99.90;;;;;;5129206;27;20038;-74
2021/10/13 05:43:41;;;;;;;3.63;0.57;;;9.10;99.90;;;;;;5088382;27;20040;-75
2021/10/13 05:46:08;;;;;;;3.03;0.80;;;9.00;99.90;;;;;;5118189;27;20514;-75
2021/10/13 05:48:34;;;;;;;2.85;0.63;;;8.90;99.90;;;;;;5105092;27;20051;-74
2021/10/13 05:51:01;;;;;;;3.58;0.70;;;8.90;99.90;;;;;;5110354;27;20065;-74
2021/10/13 05:53:29;;;;;;;4.07;0.82;;;8.90;99.90;;;;;;5103157;27;20035;-74
2021/10/13 05:55:56;;;;;;;4.30;0.95;;;8.80;99.90;;;;;;5093273;27;20039;-74
2021/10/13 05:58:24;;;;;;;7.05;1.08;;;8.80;99.90;;;;;;5091126;27;20035;-74
2021/10/13 06:00:52;;;;;;;3.72;0.90;;;8.80;99.90;;;;;;5102505;27;20031;-74
2021/10/13 06:03:20;;;;;;;4.95;1.45;;;8.70;99.90;;;;;;5123247;27;20278;-75
2021/10/13 06:05:47;;;;;;;5.03;1.17;;;8.70;99.90;;;;;;5108466;27;20398;-82
2021/10/13 06:08:14;;;;;;;5.68;1.00;;;8.70;99.90;;;;;;5063904;27;20027;-74
2021/10/13 06:10:41;;;;;;;6.75;0.70;;;8.70;99.90;;;;;;5110739;27;20514;-84
2021/10/13 06:13:07;;;;;;;4.35;0.75;;;8.70;99.90;;;;;;5117891;27;20369;-73
2021/10/13 06:15:34;;;;;;;7.40;1.15;;;8.80;99.90;;;;;;5094553;27;20039;-81
2021/10/13 06:18:06;;;;;;;7.20;2.50;;;8.90;99.90;;;;;;5076102;27;20490;-74
2021/10/13 06:20:33;;;;;;;7.25;1.23;;;9.00;99.90;;;;;;5109710;27;20043;-80
2021/10/13 06:23:00;;;;;;;6.28;0.88;;;9.10;99.90;;;;;;5073809;27;20038;-75
2021/10/13 06:25:27;;;;;;;2.90;0.77;;;9.10;99.90;;;;;;5104501;27;20042;-77
2021/10/13 06:27:53;;;;;;;7.40;0.90;;;9.20;99.90;;;;;;5120118;27;20073;-77
2021/10/13 06:30:20;;;;;;;3.60;0.60;;;9.30;99.90;;;;;;5071538;27;20043;-74
2021/10/13 06:32:46;;;;;;;5.13;0.98;;;9.40;99.90;;;;;;5076445;27;20388;-78
2021/10/13 06:35:13;;;;;;;3.85;0.60;;;9.40;99.90;;;;;;5121230;27;20378;-76
2021/10/13 06:37:40;;;;;;;4.30;0.60;;;9.50;99.90;;;;;;5108121;27;20496;-77
2021/10/13 06:40:07;;;;;;;3.42;0.60;;;9.60;99.90;;;;;;5085236;27;20042;-76
2021/10/13 06:42:33;;;;;;;4.28;0.50;;;9.60;99.90;;;;;;5099231;27;20053;-77
2021/10/13 06:45:00;;;;;;;3.67;0.68;;;9.70;99.90;;;;;;5087680;27;20055;-77
2021/10/13 06:47:27;;;;;;;5.85;0.80;;;9.70;99.90;;;;;;5120259;27;20404;-77
2021/10/13 06:49:53;;;;;;;4.00;0.60;;;9.80;99.90;;;;;;5108841;27;20038;-76
2021/10/13 06:52:19;;;;;;;3.60;0.50;;;9.80;99.90;;;;;;5115007;27;20058;-76
2021/10/13 06:54:46;;;;;;;4.05;0.50;;;9.90;99.90;;;;;;5085873;27;20487;-77
2021/10/13 06:57:12;;;;;;;3.70;0.60;;;9.90;99.90;;;;;;5124930;27;20599;-77
2021/10/13 06:59:38;;;;;;;5.10;0.50;;;10.00;99.90;;;;;;5086684;27;20046;-77
2021/10/13 07:02:05;;;;;;;4.53;0.55;;;10.10;99.90;;;;;;5075537;27;20051;-77
2021/10/13 07:04:34;;;;;;;3.55;0.63;;;10.20;99.90;;;;;;5102167;27;20043;-77
2021/10/13 07:07:00;;;;;;;5.18;0.77;;;10.20;99.90;;;;;;5122400;27;20036;-77
2021/10/13 07:09:26;;;;;;;3.17;0.60;;;10.30;99.90;;;;;;5118286;27;20051;-77
2021/10/13 07:11:53;;;;;;;4.47;0.68;;;10.40;99.90;;;;;;5103935;27;20035;-77
2021/10/13 07:14:19;;;;;;;4.50;0.50;;;10.40;99.90;;;;;;5106347;27;20369;-78
2021/10/13 07:16:46;;;;;;;6.40;0.63;;;10.50;99.90;;;;;;5103585;27;20388;-79
2021/10/13 07:19:12;;;;;;;4.90;0.70;;;10.60;99.90;;;;;;5107091;27;20036;-78
2021/10/13 07:21:39;;;;;;;3.90;0.68;;;10.60;99.90;;;;;;5125678;27;20038;-78
2021/10/13 07:24:05;;;;;;;11.02;1.35;;;10.70;99.90;;;;;;5070862;27;20054;-78
2021/10/13 07:26:34;;;;;;;6.28;1.67;;;10.80;99.90;;;;;;5092465;27;20516;-78
2021/10/13 07:29:01;;;;;;;5.32;1.33;;;10.90;99.90;;;;;;5090058;27;20036;-77
2021/10/13 07:31:27;;;;;;;6.85;1.17;;;11.00;99.90;;;;;;5106772;27;20054;-77
2021/10/13 07:33:54;;;;;;;5.53;0.90;;;11.00;99.90;;;;;;5088191;27;20054;-78
2021/10/13 07:36:22;;;;;;;4.72;0.70;;;11.10;99.90;;;;;;5089163;27;20036;-76
2021/10/13 07:38:48;;;;;;;7.22;0.98;;;11.10;99.90;;;;;;5088242;27;20510;-76
2021/10/13 07:41:15;;;;;;;4.82;0.85;;;11.20;99.90;;;;;;5109623;27;20037;-76
2021/10/13 07:43:42;;;;;;;4.82;0.90;;;11.30;99.90;;;;;;5120991;27;20379;-77
2021/10/13 07:46:09;;;;;;;5.25;0.80;;;11.30;99.90;;;;;;5098625;27;20045;-78
2021/10/13 07:48:35;;;;;;;4.32;1.05;;;11.30;99.90;;;;;;5108390;27;20528;-78
2021/10/13 07:51:01;;;;;;;3.90;0.90;;;11.30;99.90;;;;;;5117423;27;21043;-77
2021/10/13 07:53:28;;;;;;;5.18;0.70;;;11.40;99.90;;;;;;5098226;27;20039;-77
2021/10/13 07:55:55;;;;;;;5.32;0.60;;;11.40;99.90;;;;;;5114324;27;20032;-77
2021/10/13 07:58:22;;;;;;;9.02;1.17;;;11.40;99.90;;;;;;5115722;27;20039;-77
2021/10/13 08:00:49;;;;;;;1.92;0.50;;;11.40;99.90;;;;;;5122902;27;20034;-79
2021/10/13 08:03:15;;;;;;;4.43;0.63;;;11.60;99.90;;;;;;5076999;27;20037;-77
2021/10/13 08:05:41;;;;;;;4.45;0.50;;;11.70;99.90;;;;;;5106816;27;20050;-77
2021/10/13 08:08:08;;;;;;;2.90;0.70;;;11.80;99.90;;;;;;5087910;27;20027;-77
2021/10/13 08:10:34;;;;;;;7.57;0.77;;;11.80;99.90;;;;;;5088437;27;20046;-77
2021/10/13 08:13:01;;;;;;;7.20;0.70;;;11.90;99.90;;;;;;5122413;27;20039;-77
2021/10/13 08:15:27;;;;;;;7.60;0.93;;;12.00;99.90;;;;;;5123037;27;20490;-77
2021/10/13 08:17:54;;;;;;;5.50;0.60;;;12.20;99.90;;;;;;5088280;27;20789;-77
2021/10/13 08:20:21;;;;;;;4.32;0.50;;;12.30;99.90;;;;;;5105072;27;20024;-80
2021/10/13 08:22:48;;;;;;;3.17;0.50;;;12.40;99.90;;;;;;5090639;27;20391;-78
2021/10/13 08:25:16;;;;;;;4.55;0.50;;;12.50;99.90;;;;;;5113223;27;20050;-78
2021/10/13 08:27:43;;;;;;;6.60;0.73;;;12.70;99.90;;;;;;5108602;27;20388;-78
2021/10/13 08:30:10;;;;;;;4.13;0.68;;;12.70;99.90;;;;;;5086272;28;20036;-78
2021/10/13 08:32:37;;;;;;;2.67;0.77;;;12.80;99.90;;;;;;5114952;27;20035;-78
2021/10/13 08:35:05;;;;;;;3.35;0.80;;;12.80;99.90;;;;;;5122443;27;20491;-78
2021/10/13 08:37:32;;;;;;;5.32;0.88;;;12.80;99.90;;;;;;5107162;27;20051;-79
2021/10/13 08:39:58;;;;;;;6.28;0.82;;;12.90;99.90;;;;;;5113770;27;20058;-78
2021/10/13 08:42:26;;;;;;;7.55;0.75;;;12.90;99.90;;;;;;5093912;27;20088;-78
2021/10/13 08:44:54;;;;;;;6.38;0.82;;;12.90;99.90;;;;;;5099727;27;20039;-79
2021/10/13 08:47:21;;;;;;;2.58;0.60;;;12.90;99.90;;;;;;5121838;27;20039;-79
2021/10/13 08:49:47;;;;;;;3.42;0.65;;;12.90;99.90;;;;;;5105760;27;20050;-78
2021/10/13 08:52:15;;;;;;;3.38;0.50;;;12.90;99.90;;;;;;5108112;28;20059;-78
2021/10/13 08:54:41;;;;;;;4.22;0.50;;;12.90;99.90;;;;;;5113667;27;20504;-80
2021/10/13 08:57:22;;;;;;;5.45;0.55;;;12.90;99.90;;;;;;5127908;27;20038;-83
2021/10/13 08:59:51;;;;;;;5.50;1.00;;;12.90;99.90;;;;;;5106308;27;20051;-78
2021/10/13 09:02:37;;;;;;;7.63;0.70;;;12.90;99.90;;;;;;5101582;28;20052;-78
2021/10/13 09:05:11;;;;;;;4.85;0.77;;;12.80;99.90;;;;;;5102519;28;20027;-78
2021/10/13 09:07:45;;;;;;;3.75;0.50;;;12.80;99.90;;;;;;5100737;28;20032;-78
2021/10/13 09:10:12;;;;;;;3.20;0.50;;;12.80;99.90;;;;;;5101425;28;20656;-78
2021/10/13 09:12:40;;;;;;;6.53;0.60;;;12.90;99.90;;;;;;5102005;28;20039;-77
2021/10/13 09:15:16;;;;;;;2.65;0.50;;;12.90;99.90;;;;;;5100489;28;20034;-77
2021/10/13 09:17:55;;;;;;;2.90;0.50;;;13.00;99.90;;;;;;5102411;28;20035;-77
2021/10/13 09:20:27;;;;;;;3.67;0.57;;;13.00;99.90;;;;;;5101399;28;20032;-77
2021/10/13 09:23:13;;;;;;;5.00;0.55;;;13.00;99.90;;;;;;5084305;28;20481;-77
2021/10/13 09:25:40;;;;;;;3.10;0.60;;;13.00;99.90;;;;;;5100406;28;20040;-77
2021/10/13 09:28:07;;;;;;;3.78;0.63;;;13.10;99.90;;;;;;5100763;28;20508;-77
2021/10/13 09:30:41;;;;;;;5.20;0.70;;;13.20;99.90;;;;;;5100758;28;20031;-77
2021/10/13 09:33:13;;;;;;;4.28;0.50;;;13.30;99.90;;;;;;5084552;28;20042;-78
2021/10/13 09:35:46;;;;;;;2.38;0.55;;;13.40;99.90;;;;;;5098222;28;20031;-77
2021/10/13 09:38:18;;;;;;;4.50;0.60;;;13.50;99.90;;;;;;5101248;28;20039;-77
2021/10/13 09:40:47;;;;;;;7.25;0.50;;;13.50;99.90;;;;;;5102941;28;20387;-77
2021/10/13 09:43:34;;;;;;;5.35;0.63;;;13.60;99.90;;;;;;5081001;28;20733;-77
2021/10/13 09:46:07;;;;;;;4.03;0.50;;;13.70;99.90;;;;;;5102734;28;20490;-78
2021/10/13 09:48:34;;;;;;;;;;;13.80;99.90;;;;;;5100515;28;20039;-78
2021/10/13 09:51:21;;;;;;;8.75;0.77;;;13.90;99.90;;;;;;5100924;28;19915;-78
2021/10/13 09:53:50;;;;;;;6.00;0.80;;;14.00;99.90;;;;;;5095558;28;20403;-78
2021/10/13 09:56:36;;;;;;;2.97;0.32;;;14.00;99.90;;;;;;5079965;28;20032;-78
2021/10/13 09:59:12;;;;;;;6.10;0.70;;;14.20;99.90;;;;;;5101422;28;20384;-78
2021/10/13 10:01:43;;;;;;;3.58;0.50;;;14.40;99.90;;;;;;5102568;28;20161;-78
2021/10/13 10:04:14;;;;;;;7.05;0.65;;;14.70;99.90;;;;;;5103782;28;20510;-78
2021/10/13 10:06:43;;;;;;;5.78;0.43;;;15.00;99.90;;;;;;5101427;28;20032;-78
2021/10/13 10:09:16;;;;;;;2.72;0.73;;;15.30;99.90;;;;;;5102524;28;20024;-77
2021/10/13 10:11:43;;;;;;;3.70;0.47;;;15.70;99.90;;;;;;5103867;28;20361;-78
2021/10/13 10:14:32;;;;;;;4.43;0.93;;;16.00;99.90;;;;;;5103308;28;20578;-78
2021/10/13 10:17:03;;;;;;;2.22;0.60;;;16.20;99.90;;;;;;5103044;28;20039;-78
2021/10/13 10:19:51;;;;;;;4.18;0.82;;;16.30;99.90;;;;;;5104650;28;20038;-78
2021/10/13 10:22:18;;;;;;;4.75;0.50;;;16.30;99.90;;;;;;5104689;28;20896;-78
2021/10/13 10:24:53;;;;;;;3.38;0.45;;;16.30;99.90;;;;;;5103139;28;20036;-78
2021/10/13 10:27:32;;;;;;;6.15;0.40;;;16.20;99.90;;;;;;5104189;28;20032;-79
2021/10/13 10:30:07;;;;;;;6.32;0.60;;;16.10;99.90;;;;;;5105266;28;20031;-78
2021/10/13 10:32:39;;;;;;;1.63;0.30;;;16.00;99.90;;;;;;5106364;28;20036;-78
2021/10/13 10:35:05;;;;;;;5.28;0.40;;;15.90;99.90;;;;;;5084460;28;20047;-78
2021/10/13 10:37:42;;;;;;;2.03;0.30;;;15.80;99.90;;;;;;5088803;28;20412;-78
2021/10/13 10:40:21;;;;;;;2.83;0.60;;;16.00;99.90;;;;;;5088151;28;20039;-78
2021/10/13 10:43:07;;;;;;;5.43;0.55;;;16.40;99.90;;;;;;5086051;28;20028;-78
2021/10/13 10:45:36;;;;;;;4.18;0.50;;;16.70;99.90;;;;;;5071740;27;20134;-77
2021/10/13 10:48:05;;;;;;;4.25;0.47;;;17.00;99.90;;;;;;5087458;28;20465;-78
2021/10/13 10:50:36;;;;;;;4.30;0.32;;;17.20;99.90;;;;;;5107759;27;20027;-78
2021/10/13 10:53:28;;;;;;;3.65;0.40;;;17.20;99.90;;;;;;5092362;28;20038;-78
2021/10/13 10:56:15;;;;;;;2.77;0.40;;;17.10;99.90;;;;;;5089815;28;20074;-77
2021/10/13 10:58:58;;;;;;;3.72;0.30;;;16.90;99.90;;;;;;5072845;27;20276;-78
2021/10/13 11:01:25;;;;;;;2.00;0.40;;;16.60;99.90;;;;;;5087911;28;20042;-78
2021/10/13 11:03:52;;;;;;;2.42;0.30;;;16.40;99.90;;;;;;5069944;28;20122;-78
2021/10/13 11:06:27;;;;;;;1.70;0.25;;;16.50;99.90;;;;;;5105044;27;20031;-78
2021/10/13 11:09:08;;;;;;;3.03;0.30;;;16.60;99.90;;;;;;5112416;27;20035;-78
2021/10/13 11:11:40;;;;;;;2.60;0.43;;;16.40;99.90;;;;;;5085840;28;20047;-77
2021/10/13 11:14:08;;;;;;;;;;;16.20;99.90;;;;;;5087619;28;20035;-78
2021/10/13 11:16:38;;;;;;;6.13;0.50;;;16.30;99.60;;;;;;5105458;28;19916;-78
2021/10/13 11:19:09;;;;;;;3.13;0.30;;;16.50;99.60;;;;;;5087510;28;20042;-79
2021/10/13 11:21:36;;;;;;;2.20;0.40;;;16.60;99.70;;;;;;5075037;27;20038;-79
2021/10/13 11:24:04;;;;;;;2.55;0.30;;;16.60;98.90;;;;;;5091292;27;20743;-79
2021/10/13 11:26:31;;;;;;;2.05;0.50;;;16.60;98.80;;;;;;5085076;28;20052;-78
2021/10/13 11:28:57;;;;;;;2.95;0.85;;;16.80;99.00;;;;;;5088228;27;20035;-78
2021/10/13 11:31:24;;;;;;;3.78;1.20;;;17.20;98.80;;;;;;5101944;27;20035;-78
2021/10/13 11:34:04;;;;;;;3.55;1.00;;;17.50;98.50;;;;;;5089764;27;20519;-77
2021/10/13 11:36:30;;;;;;;1.17;0.30;;;17.70;98.30;;;;;;5104333;28;20039;-78
2021/10/13 11:38:57;;;;;;;3.35;0.40;;;17.80;97.20;;;;;;5085975;28;20031;-78
2021/10/13 11:41:23;;;;;;;2.55;0.30;;;17.60;96.80;;;;;;5106137;27;20499;-79
2021/10/13 11:43:50;;;;;;;2.03;0.30;;;17.50;97.20;;;;;;5088559;28;20574;-78
2021/10/13 11:46:17;;;;;;;3.80;0.30;;;17.30;97.10;;;;;;5081469;28;20044;-78
2021/10/13 11:48:44;;;;;;;3.03;0.30;;;17.20;97.20;;;;;;5085495;28;20035;-78
2021/10/13 11:51:13;;;;;;;1.10;0.30;;;17.00;97.20;;;;;;5086118;28;20090;-78
2021/10/13 11:53:47;;;;;;;2.03;0.30;;;16.80;97.50;;;;;;5090933;28;20039;-79
2021/10/13 11:56:14;;;;;;;2.00;0.30;;;16.70;97.60;;;;;;5100112;28;20027;-78
2021/10/13 11:58:41;;;;;;;3.92;0.40;;;16.50;97.30;;;;;;5083459;28;20051;-79
2021/10/13 12:01:14;;;;;;;2.15;0.38;;;16.30;97.50;;;;;;5096816;27;20048;-79
2021/10/13 12:03:41;;;;;;;4.45;0.30;;;16.10;97.60;;;;;;5105885;27;20035;-79
2021/10/13 12:06:08;;;;;;;4.47;0.40;;;16.10;98.20;;;;;;5112409;27;20085;-79
2021/10/13 12:08:37;;;;;;;3.08;0.30;;;16.70;98.40;;;;;;5119784;27;20391;-78
2021/10/13 12:11:05;;;;;;;5.35;0.60;;;17.10;97.80;;;;;;5114534;27;20038;-79
2021/10/13 12:13:37;;;;;;;2.33;0.50;;;17.60;97.20;;;;;;5108345;27;20035;-78
2021/10/13 12:16:06;;;;;;;3.00;0.30;;;18.00;96.70;;;;;;5089800;27;20479;-78
2021/10/13 12:18:47;;;;;;;3.50;0.30;;;18.10;96.50;;;;;;5105242;27;20027;-79
2021/10/13 12:21:17;;;;;;;2.65;0.38;;;17.90;96.40;;;;;;5114160;27;20034;-78
2021/10/13 12:23:46;;;;;;;1.88;0.30;;;17.70;96.30;;;;;;5118340;27;20039;-80
2021/10/13 12:26:16;;;;;;;3.75;0.40;;;17.70;96.40;;;;;;5112781;27;20027;-75
2021/10/13 12:28:45;;;;;;;2.10;0.40;;;18.20;96.70;;;;;;5085742;27;20040;-75
2021/10/13 12:31:33;;;;;;;2.90;0.40;;;19.20;95.70;;;;;;5107923;27;20035;-75
2021/10/13 12:34:01;;;;;;;3.80;0.35;;;19.50;94.60;;;;;;5087168;27;20047;-76
2021/10/13 12:36:34;;;;;;;3.42;0.40;;;19.30;94.40;;;;;;5105545;27;20053;-75
2021/10/13 12:39:07;;;;;;;2.47;0.30;;;19.40;94.10;;;;;;5103013;27;20042;-74
2021/10/13 12:41:37;;;;;;;4.68;0.50;;;19.50;93.70;;;;;;5104784;27;20027;-76
2021/10/13 12:44:25;;;;;;;2.75;0.50;;;19.50;93.60;;;;;;5114044;27;20047;-76
2021/10/13 12:46:51;;;;;;;6.25;2.05;;;19.50;93.40;;;;;;5098918;27;20042;-75
2021/10/13 12:49:18;;;;;;;3.58;1.20;;;19.40;92.70;;;;;;5111608;27;20034;-76
2021/10/13 12:51:49;;;;;;;2.88;1.00;;;19.20;92.80;;;;;;5111501;27;20031;-76
2021/10/13 12:54:16;;;;;;;3.80;0.50;;;19.10;92.70;;;;;;5092505;27;20502;-75
2021/10/13 12:56:43;;;;;;;1.38;0.30;;;18.90;92.30;;;;;;5113767;27;20041;-75
2021/10/13 12:59:10;;;;;;;2.60;0.30;;;18.60;92.30;;;;;;5080076;27;20062;-75
2021/10/13 13:01:36;;;;;;;3.35;0.50;;;18.40;92.50;;;;;;5113569;27;20048;-75
2021/10/13 13:04:03;;;;;;;1.50;0.30;;;18.30;92.80;;;;;;5086483;28;20027;-75
2021/10/13 13:06:30;;;;;;;1.77;0.25;;;18.20;93.10;;;;;;5084859;28;20055;-75